Nederlandse vliegveldverwachtingen (TAF)

Luchtvaartmeteorologische informatie voor operationeel gebruik en vluchtvoorbereiding is beschikbaar op www.luchtvaartmeteo.nl.

ZCZC
FT241100 EHAM     AMSTERDAM/SCHIPHOL   NLD   -3 m.
TAF COR EHAM 241111Z 2412/2518 29012KT CAVOK
    BECMG 2417/2420 33005KT
    BECMG 2423/2502 4500 BR MIFG
    PROB30 TEMPO 2501/2505 1800 BCFG SCT004
    BECMG 2505/2508 03005KT CAVOK=

ZCZC
FT241100 EHBK     MAASTRICHT/MAASTRICHT-AACHEN   NLD   114 m.
TAF EHBK 241059Z 2412/2518 31010KT CAVOK
    BECMG 2418/2421 35005KT
    PROB30 2502/2507 4000 BR BKN005=

ZCZC
FT241100 EHGG     GRONINGEN/EELDE   NLD   5 m.
TAF EHGG 241059Z 2412/2518 29011KT 9999 BKN035
    BECMG 2417/2420 33005KT
    BECMG 2420/2423 BKN012
    PROB40 2421/2506 2500 BR BKN004
    BECMG 2506/2509 CAVOK=

ZCZC
FT241100 EHRD     ROTTERDAM/THE HAGUE AIRPORT   NLD   -5 m.
TAF COR EHRD 241111Z 2412/2518 29012KT CAVOK
    BECMG 2417/2420 33005KT
    BECMG 2423/2502 4500 BR MIFG
    PROB30 TEMPO 2501/2505 1500 BCFG SCT004
    BECMG 2505/2508 03005KT CAVOK=

ZCZC
FT241100 EHEH     EINDHOVEN/EINDHOVEN   NLD   22 m.
TAF EHEH 241138Z 2412/2518 31010G20KT 9999 FEW018
    BECMG 2418/2420 32004KT
    BECMG 2504/2506 02005KT
    PROB30 2503/2506 3000 BR BKN005=

ZCZC
FC241200 EHVK     VOLKEL/VOLKEL   NLD   21 m.
TAF EHVK 241232Z 2413/2501 31008G18KT CAVOK
    BECMG 2418/2420 34005KT=

ZCZC
FC241200 EHLW     LEEUWARDEN/LEEUWARDEN   NLD   1 m.
TAF EHLW 241223Z 2413/2501 30011KT 9999 FEW022 SCT035
    BECMG 2416/2419 32007KT
    PROB40 2418/2421 5000 BKN006
    PROB30 2421/2424 2500 BKN003=

ZCZC
FC241200 EHGR AAA GILZE-RIJEN/GILZE-RIJEN   NLD   14 m.
TAF AMD EHGR 241430Z 2413/2501 CNL=

ZCZC
FC241200 EHWO AAB WOENSDRECHT/WOENSDRECHT   NLD   19 m.
TAF AMD EHWO 241440Z 2413/2501 CNL=

ZCZC
FC241300 EHKD     DE KOOY/DE KOOY   NLD   1 m.
TAF EHKD 241235Z 2413/2501 31012KT 9999 SCT035
    BECMG 2417/2420 32008KT
    PROB30 2418/2421 5000 BKN006=

24/05/2017 16.45 uur LT